Time;durP1;ratioP1;P1;durP2;ratioP2;P2;SDS_P1;SDS_P2;PMS_P1;PMS_P2;Temp;Humidity;BMP_temperature;BMP_pressure;BME280_temperature;BME280_humidity;BME280_pressure;Samples;Min_cycle;Max_cycle;Signal;HPM_P1;HPM_P2
2023/01/26 00:02:00;;;;;;;7.05;4.75;;;;;;;-0.01;100.00;95382.16;5033874;28;20697;-82
2023/01/26 00:04:27;;;;;;;7.43;4.82;;;;;;;0.06;100.00;95396.53;5033612;28;20655;-82
2023/01/26 00:06:53;;;;;;;5.55;3.70;;;;;;;-0.13;100.00;95401.50;5033521;28;20203;-82
2023/01/26 00:09:20;;;;;;;5.55;4.45;;;;;;;-0.11;100.00;95397.13;5034058;28;20208;-82
2023/01/26 00:11:47;;;;;;;7.10;4.93;;;;;;;0.03;100.00;95377.75;5033336;28;20579;-83
2023/01/26 00:14:14;;;;;;;4.78;4.40;;;;;;;-0.08;100.00;95386.69;5033784;28;20297;-82
2023/01/26 00:16:46;;;;;;;7.72;5.70;;;;;;;-0.16;100.00;95393.88;5033217;28;20580;-82
2023/01/26 00:19:13;;;;;;;7.40;5.70;;;;;;;-0.14;100.00;95384.34;5033085;28;20210;-82
2023/01/26 00:21:40;;;;;;;8.13;5.43;;;;;;;-0.01;100.00;95395.06;5033367;28;20207;-82
2023/01/26 00:24:07;;;;;;;6.97;5.32;;;;;;;-0.04;100.00;95396.00;5033435;28;20211;-83
2023/01/26 00:26:34;;;;;;;5.38;4.32;;;;;;;-0.06;100.00;95395.22;5032818;28;20235;-82
2023/01/26 00:29:01;;;;;;;6.13;3.92;;;;;;;-0.07;100.00;95392.69;5033280;28;20196;-81
2023/01/26 00:31:28;;;;;;;6.03;5.30;;;;;;;-0.07;100.00;95385.81;5033223;28;20238;-82
2023/01/26 00:33:57;;;;;;;8.88;6.28;;;;;;;-0.11;100.00;95371.34;5033035;28;20234;-82
2023/01/26 00:36:24;;;;;;;12.52;6.45;;;;;;;0.01;100.00;95358.91;5033474;28;20572;-82
2023/01/26 00:38:51;;;;;;;7.88;5.15;;;;;;;-0.02;100.00;95360.69;5033146;28;20206;-82
2023/01/26 00:44:02;;;;;;;3.25;2.95;;;;;;;-0.16;100.00;95362.94;5032894;28;20203;-82
2023/01/26 00:46:29;;;;;;;9.43;6.00;;;;;;;-0.08;100.00;95363.50;5033319;28;20615;-81
2023/01/26 00:48:59;;;;;;;7.15;4.85;;;;;;;-0.14;100.00;95360.28;5032951;28;20192;-81
2023/01/26 00:51:26;;;;;;;6.53;5.32;;;;;;;-0.23;100.00;95358.06;5032952;28;20200;-82
2023/01/26 00:53:53;;;;;;;7.88;4.60;;;;;;;-0.16;100.00;95351.78;5032593;28;20231;-82
2023/01/26 00:56:19;;;;;;;10.73;6.30;;;;;;;-0.07;100.00;95362.59;5032767;28;20204;-82
2023/01/26 00:58:46;;;;;;;9.52;6.30;;;;;;;-0.04;100.00;95352.16;5032293;28;20226;-81
2023/01/26 01:01:13;;;;;;;7.55;5.15;;;;;;;-0.01;100.00;95349.47;5032685;28;20261;-82
2023/01/26 01:03:40;;;;;;;12.32;6.85;;;;;;;-0.07;100.00;95349.69;5032347;28;20214;-82
2023/01/26 01:06:08;;;;;;;5.97;3.92;;;;;;;-0.11;100.00;95347.28;5032426;28;20748;-82
2023/01/26 01:08:35;;;;;;;6.60;4.57;;;;;;;-0.15;100.00;95343.97;5032104;28;20604;-82
2023/01/26 01:11:06;;;;;;;7.60;5.30;;;;;;;-0.16;100.00;95344.88;5032374;28;20200;-82
2023/01/26 01:13:33;;;;;;;5.93;3.90;;;;;;;-0.19;100.00;95341.56;5032208;28;20227;-82
2023/01/26 01:16:00;;;;;;;9.63;6.85;;;;;;;-0.15;100.00;95343.97;5032421;28;20210;-81
2023/01/26 01:18:27;;;;;;;8.25;5.38;;;;;;;-0.13;100.00;95342.19;5032468;28;20204;-82
2023/01/26 01:20:53;;;;;;;7.03;4.47;;;;;;;-0.29;100.00;95340.19;5031989;28;20659;-82
2023/01/26 01:23:22;;;;;;;8.30;6.70;;;;;;;-0.21;100.00;95333.88;5032318;28;20214;-82
2023/01/26 01:25:57;;;;;;;8.07;6.20;;;;;;;-0.27;100.00;95336.69;5032355;28;20227;-82
2023/01/26 01:28:24;;;;;;;5.15;4.63;;;;;;;-0.23;100.00;95335.69;5032181;28;20202;-82
2023/01/26 01:30:51;;;;;;;3.22;2.92;;;;;;;-0.38;100.00;95331.06;4980640;28;20257;-82
2023/01/26 01:33:17;;;;;;;7.65;5.97;;;;;;;-0.32;100.00;95330.84;5031957;28;20677;-81
2023/01/26 01:35:44;;;;;;;7.00;5.38;;;;;;;-0.26;100.00;95329.81;5032294;28;20265;-82
2023/01/26 01:38:11;;;;;;;5.40;4.90;;;;;;;-0.17;100.00;95325.16;5032135;28;20295;-82
2023/01/26 01:40:43;;;;;;;6.00;4.43;;;;;;;-0.26;100.00;95335.81;5032037;28;20681;-82
2023/01/26 01:43:12;;;;;;;9.95;5.50;;;;;;;-0.27;100.00;95328.97;5032135;28;20205;-81
2023/01/26 01:45:43;;;;;;;6.00;5.35;;;;;;;-0.20;100.00;95333.00;5032111;28;20290;-81
2023/01/26 01:48:18;;;;;;;8.13;5.00;;;;;;;-0.16;100.00;95333.72;5031766;28;20207;-81
2023/01/26 01:50:45;;;;;;;7.53;5.60;;;;;;;-0.18;100.00;95323.47;5013910;28;20297;-82
2023/01/26 01:53:18;;;;;;;4.68;4.25;;;;;;;-0.11;100.00;95332.66;5013605;28;20667;-81
2023/01/26 01:55:47;;;;;;;6.75;4.18;;;;;;;-0.20;99.46;95334.72;5031705;28;20289;-82
2023/01/26 01:58:14;;;;;;;3.60;3.00;;;;;;;-0.22;99.46;95329.63;5032340;28;20238;-82
2023/01/26 02:00:42;;;;;;;9.50;5.07;;;;;;;-0.22;100.00;95326.22;4997152;28;20197;-82
2023/01/26 02:03:13;;;;;;;5.32;4.40;;;;;;;-0.05;99.68;95318.69;5031829;28;20202;-82
2023/01/26 02:05:52;;;;;;;7.35;5.07;;;;;;;-0.14;100.00;95319.88;5031822;28;20207;-82
2023/01/26 02:08:22;;;;;;;5.35;4.57;;;;;;;-0.17;99.25;95301.94;5031929;28;20617;-82
2023/01/26 02:10:54;;;;;;;6.80;5.95;;;;;;;-0.07;99.71;95303.28;5031964;28;20204;-82
2023/01/26 02:13:23;;;;;;;8.45;5.82;;;;;;;-0.06;99.68;95310.09;5032071;28;20199;-82
2023/01/26 02:15:51;;;;;;;6.82;4.28;;;;;;;-0.12;99.38;95307.75;5032311;28;20218;-82
2023/01/26 02:18:18;;;;;;;7.10;5.00;;;;;;;-0.11;99.65;95306.03;5032177;28;20196;-81
2023/01/26 02:20:47;;;;;;;6.15;3.67;;;;;;;-0.14;99.92;95291.50;5013485;28;20207;-82
2023/01/26 02:23:35;;;;;;;8.93;5.93;;;;;;;-0.10;100.00;95284.50;5031770;28;20200;-82
2023/01/26 02:26:10;;;;;;;6.57;5.10;;;;;;;-0.08;99.65;95278.38;5032136;28;20637;-81
2023/01/26 02:28:37;;;;;;;6.47;5.45;;;;;;;-0.03;99.56;95280.78;5013522;28;20238;-81
2023/01/26 02:31:05;;;;;;;8.38;4.40;;;;;;;-0.20;99.58;95283.16;5032076;28;20211;-82
2023/01/26 02:33:33;;;;;;;5.50;4.65;;;;;;;-0.14;100.00;95277.78;5031519;28;20201;-82
2023/01/26 02:36:02;;;;;;;8.05;4.72;;;;;;;-0.17;99.21;95277.88;5031818;28;20593;-82
2023/01/26 02:38:34;;;;;;;8.00;5.18;;;;;;;-0.24;100.00;95266.97;5031354;28;20729;-82
2023/01/26 02:41:05;;;;;;;5.65;4.85;;;;;;;-0.18;100.00;95271.88;5031518;28;20203;-82
2023/01/26 02:43:33;;;;;;;6.00;4.85;;;;;;;-0.32;100.00;95267.22;5035521;28;20226;-82
2023/01/26 02:46:00;;;;;;;5.97;3.30;;;;;;;-0.33;100.00;95262.97;5035209;28;20207;-82
2023/01/26 02:51:11;;;;;;;7.18;5.72;;;;;;;-0.30;100.00;95254.28;5035176;28;20345;-81
2023/01/26 02:53:38;;;;;;;7.70;5.18;;;;;;;-0.25;100.00;95257.56;5034687;28;20200;-82
2023/01/26 02:56:04;;;;;;;6.28;4.45;;;;;;;-0.26;100.00;95253.28;5034881;28;20663;-82
2023/01/26 02:58:31;;;;;;;8.25;4.90;;;;;;;-0.23;100.00;95248.00;5035193;28;20569;-81
2023/01/26 03:00:59;;;;;;;5.80;4.85;;;;;;;-0.29;100.00;95247.38;5034920;28;20207;-82
2023/01/26 03:03:40;;;;;;;5.90;4.45;;;;;;;-0.34;100.00;95242.41;5034825;28;20199;-82
2023/01/26 03:06:11;;;;;;;6.50;4.60;;;;;;;-0.29;100.00;95243.06;5034716;28;20282;-82
2023/01/26 03:08:38;;;;;;;7.97;5.50;;;;;;;-0.28;100.00;95242.19;5034877;28;20207;-82
2023/01/26 03:11:07;;;;;;;7.22;5.13;;;;;;;-0.22;100.00;95243.69;5034502;28;20204;-82
2023/01/26 03:13:34;;;;;;;4.57;4.18;;;;;;;-0.32;99.71;95238.03;5034609;28;20200;-82
2023/01/26 03:16:06;;;;;;;5.25;4.40;;;;;;;-0.32;99.66;95238.03;5034566;28;20205;-82
2023/01/26 03:29:32;;;;;;;7.78;4.82;;;;;;;-0.29;99.53;95214.69;5038187;28;20219;-82
2023/01/26 03:32:00;;;;;;;12.23;4.38;;;;;;;-0.29;99.22;95212.13;5034668;28;20203;-82
2023/01/26 03:34:28;;;;;;;4.18;3.50;;;;;;;-0.33;98.92;95195.94;5034447;28;20230;-82
2023/01/26 03:36:55;;;;;;;10.07;5.22;;;;;;;-0.33;99.25;95201.09;5034254;28;20714;-82
2023/01/26 03:58:41;;;;;;;5.28;3.42;;;;;;;-0.18;99.23;95183.38;5033944;28;20218;-82
2023/01/26 04:01:09;;;;;;;6.10;4.50;;;;;;;-0.28;99.45;95182.91;5034242;28;20195;-82
2023/01/26 04:09:05;;;;;;;6.10;4.15;;;;;;;-0.21;99.54;95176.59;5035293;28;20261;-82
2023/01/26 04:11:32;;;;;;;5.20;4.40;;;;;;;-0.16;99.13;95179.84;5033657;28;20199;-82
2023/01/26 04:22:13;;;;;;;5.68;4.00;;;;;;;-0.30;99.65;95153.72;5033385;28;20206;-82
2023/01/26 04:24:40;;;;;;;10.48;6.47;;;;;;;-0.36;99.96;95146.22;5033108;28;20828;-82
2023/01/26 04:27:07;;;;;;;4.07;3.67;;;;;;;-0.37;99.65;95142.81;5033327;28;20249;-82
2023/01/26 04:29:34;;;;;;;3.92;3.53;;;;;;;-0.28;98.69;95145.97;5015528;28;20629;-82
2023/01/26 04:32:00;;;;;;;5.32;4.78;;;;;;;-0.16;98.61;95146.31;5033531;28;20277;-82
2023/01/26 04:34:29;;;;;;;7.03;4.18;;;;;;;-0.25;98.62;95154.41;5032968;28;20249;-81
2023/01/26 04:36:55;;;;;;;3.65;3.05;;;;;;;-0.24;98.43;95142.34;5033118;28;20199;-82
2023/01/26 04:39:22;;;;;;;5.10;3.95;;;;;;;-0.30;98.46;95148.56;5032777;28;20663;-82
2023/01/26 04:41:49;;;;;;;6.47;5.43;;;;;;;-0.27;98.56;95148.47;5038804;28;20658;-82
2023/01/26 04:44:16;;;;;;;7.33;5.23;;;;;;;-0.17;98.56;95147.22;5031799;28;20446;-82
2023/01/26 04:46:44;;;;;;;4.40;4.00;;;;;;;-0.18;97.71;95148.09;5033430;28;20534;-82
2023/01/26 04:49:11;;;;;;;9.23;5.05;;;;;;;-0.20;98.60;95134.44;5032944;28;20230;-82
2023/01/26 04:51:40;;;;;;;4.72;4.20;;;;;;;-0.12;98.05;95132.38;5033067;28;20199;-82
2023/01/26 04:54:07;;;;;;;6.35;5.30;;;;;;;-0.14;97.99;95143.66;5032854;28;20640;-82
2023/01/26 04:56:35;;;;;;;5.68;5.18;;;;;;;-0.18;97.84;95137.78;5032850;28;20199;-82
2023/01/26 04:59:05;;;;;;;5.47;4.60;;;;;;;-0.16;97.87;95146.31;5033222;28;20203;-88
2023/01/26 05:01:32;;;;;;;6.22;4.50;;;;;;;-0.22;97.76;95138.81;5033423;28;20277;-87
2023/01/26 05:03:59;;;;;;;5.85;4.57;;;;;;;-0.15;98.35;95148.00;5033407;28;20211;-86
2023/01/26 05:06:26;;;;;;;6.25;4.93;;;;;;;-0.04;97.21;95148.38;5031840;28;20662;-83
2023/01/26 05:08:55;;;;;;;6.30;5.40;;;;;;;0.00;97.20;95141.41;5033616;28;20208;-82
2023/01/26 05:11:22;;;;;;;6.15;5.10;;;;;;;0.20;96.66;95143.16;5032433;28;20647;-81
2023/01/26 05:13:49;;;;;;;5.80;5.20;;;;;;;0.20;96.33;95138.84;5032624;28;20196;-82
2023/01/26 05:16:16;;;;;;;4.78;4.38;;;;;;;0.15;95.76;95135.59;5032399;28;20256;-82
2023/01/26 05:18:44;;;;;;;10.57;5.68;;;;;;;0.23;95.27;95125.81;5031869;28;20207;-81
2023/01/26 05:21:11;;;;;;;9.02;5.13;;;;;;;0.24;95.13;95134.38;5033181;28;20203;-82
2023/01/26 05:23:39;;;;;;;9.15;6.28;;;;;;;0.11;95.68;95131.47;5033472;28;20203;-81
2023/01/26 05:26:08;;;;;;;5.13;4.60;;;;;;;0.16;95.75;95126.97;5032902;28;20599;-81
2023/01/26 05:28:35;;;;;;;5.53;4.93;;;;;;;0.16;96.10;95126.13;5033617;28;20231;-81
2023/01/26 05:31:02;;;;;;;44.00;7.43;;;;;;;0.26;95.92;95114.53;5014787;28;20211;-82
2023/01/26 05:33:28;;;;;;;7.10;6.40;;;;;;;0.27;95.74;95127.34;5033344;28;20210;-81
2023/01/26 05:35:55;;;;;;;9.60;7.53;;;;;;;0.30;95.56;95126.41;5033450;28;20277;-82
2023/01/26 05:38:22;;;;;;;6.30;5.40;;;;;;;0.30;95.40;95119.50;5033754;28;20215;-82
2023/01/26 05:40:49;;;;;;;9.95;5.93;;;;;;;0.26;95.61;95117.09;5048278;28;20203;-81
2023/01/26 05:43:22;;;;;;;9.15;6.28;;;;;;;0.20;96.30;95122.50;5043981;28;20191;-82
2023/01/26 05:45:49;;;;;;;9.60;7.35;;;;;;;0.28;95.41;95116.13;5042987;28;20190;-82
2023/01/26 05:48:27;;;;;;;9.77;6.82;;;;;;;0.22;95.63;95120.72;5043474;28;20195;-82
2023/01/26 05:53:56;;;;;;;12.88;8.20;;;;;;;0.21;95.98;95122.44;5011222;28;20208;-82
2023/01/26 05:56:22;;;;;;;9.32;7.07;;;;;;;0.33;95.91;95126.28;5011328;28;20574;-84
2023/01/26 05:58:51;;;;;;;14.13;7.72;;;;;;;0.30;95.07;95129.84;5011472;28;20204;-84
2023/01/26 06:01:17;;;;;;;9.23;7.18;;;;;;;0.35;94.90;95121.06;5011736;28;20211;-82
2023/01/26 06:03:44;;;;;;;11.80;8.20;;;;;;;0.28;95.45;95120.44;5011334;28;20205;-84
2023/01/26 06:06:11;;;;;;;8.13;6.50;;;;;;;0.51;94.98;95117.75;5011082;28;20204;-85
2023/01/26 06:08:38;;;;;;;8.70;6.85;;;;;;;0.70;94.19;95117.84;5011470;28;20240;-85
2023/01/26 06:11:05;;;;;;;9.07;6.55;;;;;;;0.69;93.26;95120.47;5011265;28;20579;-85
2023/01/26 06:13:32;;;;;;;10.10;6.65;;;;;;;0.72;92.97;95116.03;5011271;28;20204;-84
2023/01/26 06:16:02;;;;;;;16.02;8.40;;;;;;;0.67;92.98;95124.88;5011610;28;20228;-87
2023/01/26 06:18:29;;;;;;;11.43;8.60;;;;;;;0.69;93.57;95116.16;5013886;28;20438;-83
2023/01/26 06:20:59;;;;;;;14.68;8.90;;;;;;;0.80;92.78;95113.94;5015192;28;20215;-80
2023/01/26 06:23:26;;;;;;;12.05;7.40;;;;;;;0.61;93.31;95113.91;5017312;28;20295;-81
2023/01/26 06:25:53;;;;;;;11.88;7.45;;;;;;;0.52;93.43;95119.44;5034169;28;20258;-81
2023/01/26 06:28:20;;;;;;;14.15;7.25;;;;;;;0.57;94.01;95111.50;5001992;28;20247;-81
2023/01/26 06:30:47;;;;;;;12.55;8.73;;;;;;;0.50;93.77;95104.91;4990735;28;20219;-82
2023/01/26 06:33:15;;;;;;;10.35;7.60;;;;;;;0.60;92.80;95106.22;5057206;28;20202;-82
2023/01/26 06:35:42;;;;;;;13.27;8.90;;;;;;;0.47;93.53;95100.72;5056407;28;20227;-84
2023/01/26 06:38:08;;;;;;;14.77;9.57;;;;;;;0.43;94.29;95106.09;5056277;28;20214;-82
2023/01/26 06:40:35;;;;;;;12.55;8.38;;;;;;;0.46;93.80;95099.06;5056312;28;20199;-83
2023/01/26 06:43:02;;;;;;;10.95;8.38;;;;;;;0.54;94.20;95109.88;5056178;28;20210;-83
2023/01/26 06:45:29;;;;;;;7.38;6.43;;;;;;;0.34;94.47;95107.31;5056216;28;20199;-82
2023/01/26 06:47:55;;;;;;;11.15;7.75;;;;;;;0.35;95.36;95101.25;5056301;28;20198;-82
2023/01/26 06:50:31;;;;;;;7.30;4.95;;;;;;;0.27;95.79;95096.38;5001679;28;20209;-83
2023/01/26 06:53:00;;;;;;;6.63;5.07;;;;;;;0.24;96.53;95098.25;5037015;28;20205;-82
2023/01/26 06:55:34;;;;;;;13.70;8.77;;;;;;;0.28;96.70;95097.22;5035906;28;20682;-82
2023/01/26 06:58:01;;;;;;;11.68;8.32;;;;;;;0.26;96.71;95102.44;5035960;28;20631;-82
2023/01/26 07:00:28;;;;;;;8.45;6.50;;;;;;;0.28;97.48;95092.06;5035889;28;20657;-82
2023/01/26 07:02:54;;;;;;;10.52;7.55;;;;;;;0.38;96.98;95098.53;5043798;28;20200;-80
2023/01/26 07:05:21;;;;;;;11.10;7.07;;;;;;;0.35;96.77;95100.41;5056371;28;20198;-80
2023/01/26 07:07:50;;;;;;;13.32;7.30;;;;;;;0.24;97.54;95095.69;5055204;28;20249;-81
2023/01/26 07:10:16;;;;;;;23.15;12.20;;;;;;;0.29;97.20;95086.03;5035684;28;20663;-80
2023/01/26 07:12:45;;;;;;;14.30;8.57;;;;;;;0.34;97.26;95078.09;5048912;28;20200;-81
2023/01/26 07:15:12;;;;;;;6.97;5.30;;;;;;;0.32;97.53;95074.75;5001025;28;20228;-81
2023/01/26 07:17:40;;;;;;;12.05;7.97;;;;;;;0.39;96.91;95083.91;5035772;28;20195;-82
2023/01/26 07:20:07;;;;;;;10.75;6.93;;;;;;;0.44;96.70;95074.22;5036032;28;20199;-82
2023/01/26 07:22:34;;;;;;;8.98;6.63;;;;;;;0.49;96.24;95065.34;5034819;28;20682;-84
2023/01/26 07:25:02;;;;;;;13.23;6.85;;;;;;;0.36;96.29;95077.13;5035315;28;20673;-82
2023/01/26 07:27:29;;;;;;;16.02;7.43;;;;;;;0.53;96.10;95081.56;5045273;28;20231;-82
2023/01/26 07:29:56;;;;;;;12.77;7.30;;;;;;;0.50;96.13;95074.78;5035665;28;20203;-83
2023/01/26 07:32:23;;;;;;;11.45;8.38;;;;;;;0.65;96.43;95065.56;5018246;28;20277;-82
2023/01/26 07:34:50;;;;;;;9.25;7.32;;;;;;;0.73;95.63;95085.88;5053584;28;20202;-82
2023/01/26 07:37:17;;;;;;;11.07;7.87;;;;;;;0.65;95.54;95068.13;5043167;28;20203;-83
2023/01/26 07:39:44;;;;;;;11.85;7.50;;;;;;;0.76;95.04;95071.06;4996344;28;20799;-83
2023/01/26 07:42:12;;;;;;;9.75;6.00;;;;;;;0.89;94.57;95053.31;5053461;28;20206;-81
2023/01/26 07:44:39;;;;;;;10.77;6.60;;;;;;;0.70;95.08;95060.19;5054913;28;20203;-82
2023/01/26 07:47:06;;;;;;;27.02;11.75;;;;;;;0.93;95.02;95057.44;5054127;28;20199;-82
2023/01/26 07:49:32;;;;;;;16.27;11.30;;;;;;;1.11;94.78;95066.06;4984063;28;20258;-82
2023/01/26 07:51:59;;;;;;;12.35;9.60;;;;;;;1.21;93.89;95063.03;5046480;28;20216;-83
2023/01/26 07:54:26;;;;;;;13.07;9.68;;;;;;;1.35;92.75;95056.38;5055011;28;20661;-82
2023/01/26 07:56:53;;;;;;;12.63;9.48;;;;;;;1.41;92.19;95058.66;5054767;28;20207;-82
2023/01/26 07:59:22;;;;;;;10.40;6.93;;;;;;;1.48;91.34;95060.09;5035040;28;20662;-81
2023/01/26 08:01:49;;;;;;;11.30;7.20;;;;;;;1.40;91.42;95067.34;5035528;28;20192;-82
2023/01/26 08:04:16;;;;;;;13.25;8.30;;;;;;;1.26;91.63;95059.38;5035409;28;20556;-82
2023/01/26 08:07:14;;;;;;;13.15;9.20;;;;;;;1.33;92.65;95053.03;5034948;28;20195;-82
2023/01/26 08:09:41;;;;;;;21.10;11.43;;;;;;;1.51;91.83;95042.66;4954793;29;21026;-83
2023/01/26 08:12:08;;;;;;;12.63;8.53;;;;;;;1.69;91.34;95053.88;4954469;29;20534;-82
2023/01/26 08:14:36;;;;;;;11.30;7.57;;;;;;;1.64;90.60;95048.09;4954087;29;20944;-82
2023/01/26 08:17:03;;;;;;;15.40;9.53;;;;;;;1.67;91.10;95040.19;4953012;29;20524;-82
2023/01/26 08:19:30;;;;;;;11.40;7.60;;;;;;;1.54;89.43;95041.69;4953125;29;20449;-82
2023/01/26 08:21:57;;;;;;;11.60;8.23;;;;;;;1.40;90.50;95036.31;4953229;29;20446;-82
2023/01/26 08:24:25;;;;;;;16.67;9.90;;;;;;;1.32;91.32;95041.00;4953110;29;20206;-82
2023/01/26 08:26:52;;;;;;;15.75;8.88;;;;;;;1.59;90.88;95042.31;4952786;29;20709;-82
2023/01/26 08:29:19;;;;;;;8.15;6.63;;;;;;;1.57;90.07;95035.53;4952866;28;20206;-82
2023/01/26 08:31:47;;;;;;;10.80;6.50;;;;;;;1.67;89.77;95036.75;4952434;28;20685;-82
2023/01/26 08:34:14;;;;;;;13.27;7.63;;;;;;;1.82;89.97;95039.44;4954201;28;20214;-82
2023/01/26 08:36:41;;;;;;;14.53;7.77;;;;;;;1.92;89.41;95033.81;4952844;28;20292;-82
2023/01/26 08:39:08;;;;;;;62.03;25.30;;;;;;;1.99;88.41;95032.59;4952699;28;20462;-81
2023/01/26 08:41:35;;;;;;;49.23;16.47;;;;;;;2.14;88.14;95039.63;4952994;29;21079;-83
2023/01/26 08:44:02;;;;;;;27.40;12.47;;;;;;;2.10;87.43;95033.78;4954187;28;20505;-82
2023/01/26 08:46:29;;;;;;;19.40;9.80;;;;;;;2.08;87.74;95038.19;4981936;28;20458;-81
2023/01/26 08:48:57;;;;;;;8.10;5.00;;;;;;;2.12;86.78;95036.28;5033730;28;20442;-81
2023/01/26 08:51:24;;;;;;;6.53;5.10;;;;;;;2.12;87.27;95033.69;5034011;28;20442;-83
2023/01/26 08:53:53;;;;;;;8.48;6.78;;;;;;;2.12;86.97;95036.28;5033296;28;20453;-82
2023/01/26 08:56:20;;;;;;;12.10;7.68;;;;;;;2.23;86.30;95048.69;5034030;28;20281;-82
2023/01/26 08:58:47;;;;;;;11.57;6.80;;;;;;;2.13;86.23;95041.38;5033181;28;20211;-82
2023/01/26 09:01:15;;;;;;;8.33;5.27;;;;;;;2.09;86.45;95031.25;5032819;28;20458;-82
2023/01/26 09:03:43;;;;;;;8.05;5.72;;;;;;;2.02;86.43;95029.88;5032544;28;20844;-83
2023/01/26 09:06:14;;;;;;;7.00;5.55;;;;;;;2.22;85.84;95041.81;5032931;28;20214;-82
2023/01/26 09:08:41;;;;;;;12.83;5.80;;;;;;;2.15;86.03;95044.72;5032475;28;20207;-82
2023/01/26 09:11:09;;;;;;;10.07;5.60;;;;;;;2.09;86.99;95039.03;5032416;28;20446;-82
2023/01/26 09:13:37;;;;;;;10.00;6.05;;;;;;;2.21;86.26;95028.03;5032715;28;20858;-82
2023/01/26 09:16:05;;;;;;;6.50;5.00;;;;;;;2.37;85.88;95026.38;5032584;28;20227;-82
2023/01/26 09:18:32;;;;;;;10.90;5.90;;;;;;;2.45;85.45;95029.41;5032291;28;20452;-82
2023/01/26 09:21:03;;;;;;;6.60;5.90;;;;;;;2.48;85.31;95020.63;5032589;28;20446;-82
2023/01/26 09:23:32;;;;;;;9.33;5.87;;;;;;;2.29;84.96;95012.13;5033666;28;20504;-82
2023/01/26 09:25:58;;;;;;;8.80;7.50;;;;;;;2.27;85.65;95014.78;5036439;28;20557;-81
2023/01/26 09:28:26;;;;;;;11.27;6.47;;;;;;;2.06;85.72;95011.53;5032506;28;20438;-82
2023/01/26 09:30:52;;;;;;;5.60;5.00;;;;;;;2.26;85.79;95012.28;5036643;28;20437;-81
2023/01/26 09:33:20;;;;;;;12.40;7.00;;;;;;;2.25;85.82;94998.50;5047362;28;20958;-81
2023/01/26 09:35:47;;;;;;;55.30;30.20;;;;;;;2.03;86.77;94990.16;5032992;28;20477;-80
2023/01/26 09:38:16;;;;;;;40.27;23.50;;;;;;;2.03;86.93;94985.81;5032244;28;20446;-82
2023/01/26 09:40:54;;;;;;;13.37;9.77;;;;;;;1.87;87.11;94995.25;5041919;28;20505;-79
2023/01/26 09:43:30;;;;;;;39.43;26.67;;;;;;;1.91;88.42;94996.75;5052159;28;20444;-81
2023/01/26 09:46:03;;;;;;;7.27;5.57;;;;;;;2.00;87.34;94995.47;5042212;28;20453;-81
2023/01/26 09:48:37;;;;;;;6.83;6.10;;;;;;;1.97;87.41;94998.22;5034047;28;20793;-82
2023/01/26 09:51:09;;;;;;;18.73;11.97;;;;;;;1.84;87.98;94985.06;5004743;28;20984;-81
2023/01/26 09:53:45;;;;;;;8.53;7.07;;;;;;;1.81;88.13;94975.69;5043108;28;20810;-80
2023/01/26 09:56:17;;;;;;;5.55;5.05;;;;;;;1.95;88.07;94968.97;5010187;28;21082;-81
2023/01/26 09:58:47;;;;;;;6.93;4.40;;;;;;;1.89;88.14;94962.38;5051831;28;20334;-81
2023/01/26 10:01:20;;;;;;;5.07;4.47;;;;;;;1.91;87.92;94975.22;5051484;28;20516;-80
2023/01/26 10:03:51;;;;;;;8.60;4.40;;;;;;;2.07;87.02;94978.75;5041563;28;20502;-81
2023/01/26 10:06:25;;;;;;;6.13;5.53;;;;;;;2.00;87.14;94977.34;5052639;28;20458;-82
2023/01/26 10:08:54;;;;;;;8.43;7.47;;;;;;;2.11;87.08;94980.25;5047837;28;20564;-82
2023/01/26 10:11:30;;;;;;;14.20;9.70;;;;;;;2.16;87.72;94973.09;5037762;28;20825;-82
2023/01/26 10:14:05;;;;;;;7.63;5.33;;;;;;;2.35;87.19;94970.41;5039562;28;20453;-82
2023/01/26 10:16:34;;;;;;;7.63;6.77;;;;;;;2.25;87.42;94974.38;5055821;28;20492;-82
2023/01/26 10:19:04;;;;;;;4.57;4.17;;;;;;;2.19;87.44;94959.97;5004335;28;20448;-82
2023/01/26 10:21:35;;;;;;;4.13;3.53;;;;;;;2.06;87.05;94946.84;5036443;28;20449;-82
2023/01/26 10:24:04;;;;;;;5.60;5.10;;;;;;;2.08;87.65;94944.19;5049238;28;20457;-79
2023/01/26 10:26:33;;;;;;;3.97;3.50;;;;;;;2.21;86.14;94932.28;5037858;28;20466;-79
2023/01/26 10:29:01;;;;;;;4.33;3.90;;;;;;;2.28;87.64;94925.00;5036578;28;20933;-80
2023/01/26 10:31:29;;;;;;;9.77;7.27;;;;;;;2.12;87.78;94922.41;5002027;28;20444;-80
2023/01/26 10:33:59;;;;;;;5.97;5.37;;;;;;;2.22;87.48;94921.00;5054703;28;20916;-80
2023/01/26 10:36:30;;;;;;;8.20;5.73;;;;;;;2.16;87.55;94908.38;5050031;28;20485;-79
2023/01/26 10:39:04;;;;;;;6.57;4.67;;;;;;;2.26;87.34;94901.78;5043055;28;20441;-79
2023/01/26 10:41:33;;;;;;;6.20;5.40;;;;;;;2.15;86.54;94891.19;5052058;28;20446;-79
2023/01/26 10:44:02;;;;;;;7.87;7.07;;;;;;;2.22;87.68;94889.94;5038473;28;20460;-80
2023/01/26 10:46:33;;;;;;;7.37;6.60;;;;;;;2.08;87.13;94887.25;5040761;28;20678;-80
2023/01/26 10:49:01;;;;;;;6.53;5.90;;;;;;;2.07;87.69;94878.63;5034621;28;20984;-81
2023/01/26 10:51:30;;;;;;;8.13;4.23;;;;;;;2.16;87.23;94878.16;4985711;28;20446;-80
2023/01/26 10:54:21;;;;;;;4.90;4.40;;;;;;;2.08;86.96;94866.53;5045711;28;20449;-80
2023/01/26 10:56:52;;;;;;;5.73;5.23;;;;;;;2.16;86.71;94860.03;5047377;28;20480;-80
2023/01/26 10:59:32;;;;;;;5.60;5.10;;;;;;;2.08;86.96;94848.44;5021912;28;20499;-80
2023/01/26 11:02:01;;;;;;;8.13;6.10;;;;;;;2.01;87.57;94847.88;5057222;28;20560;-80
2023/01/26 11:04:29;;;;;;;8.03;6.33;;;;;;;2.13;87.73;94841.25;5054838;28;20518;-80
2023/01/26 11:06:56;;;;;;;4.43;4.03;;;;;;;2.18;87.74;94839.25;5004661;28;20437;-80
2023/01/26 11:09:27;;;;;;;4.50;4.10;;;;;;;2.13;87.85;94831.72;5057870;28;20459;-81
2023/01/26 11:12:01;;;;;;;11.93;8.43;;;;;;;2.24;87.32;94828.56;5057194;28;20425;-81
2023/01/26 11:14:28;;;;;;;5.37;4.30;;;;;;;2.32;87.82;94825.59;5057111;28;20986;-81
2023/01/26 11:17:01;;;;;;;15.60;11.27;;;;;;;2.17;87.17;94828.06;5055529;28;20927;-80
2023/01/26 11:20:00;;;;;;;16.57;11.73;;;;;;;2.12;88.05;94813.69;5057664;28;20445;-82
2023/01/26 11:22:33;;;;;;;256.93;163.40;;;;;;;2.12;88.22;94811.94;5000174;28;20526;-82
2023/01/26 11:25:13;;;;;;;38.80;33.22;;;;;;;2.14;87.93;94796.34;4996678;28;20554;-82
2023/01/26 11:27:51;;;;;;;24.73;17.90;;;;;;;2.15;89.13;94785.88;4994649;28;20211;-81
2023/01/26 11:30:41;;;;;;;9.47;8.47;;;;;;;2.09;88.89;94786.22;4979284;28;20507;-82
2023/01/26 11:33:18;;;;;;;11.73;8.67;;;;;;;1.92;89.55;94772.50;4936026;29;20950;-82
2023/01/26 11:35:54;;;;;;;23.83;13.87;;;;;;;1.96;89.99;94767.09;4936367;29;20456;-85
2023/01/26 11:38:34;;;;;;;67.90;42.20;;;;;;;1.92;89.20;94775.94;4936608;29;20482;-84
2023/01/26 11:41:14;;;;;;;30.40;21.80;;;;;;;2.02;90.09;94761.56;4937068;29;20455;-83
2023/01/26 11:44:17;;;;;;;18.20;13.30;;;;;;;2.54;99.95;94750.13;4937148;29;20450;-87
2023/01/26 11:47:01;;;;;;;7.00;5.70;;;;;;;2.60;90.20;94762.72;4878964;29;20453;-86
2023/01/26 11:49:47;;;;;;;8.30;7.50;;;;;;;2.65;88.77;94766.75;4864107;29;20457;-85
2023/01/26 11:52:24;;;;;;;12.53;7.60;;;;;;;2.73;87.60;94761.97;4879807;29;20453;-86
2023/01/26 11:55:04;;;;;;;8.33;5.80;;;;;;;3.23;97.32;94749.63;4879916;29;20461;-81
2023/01/26 11:57:38;;;;;;;10.23;5.43;;;;;;;3.23;88.48;94767.78;4879250;29;20633;-81
2023/01/26 12:00:16;;;;;;;8.40;5.27;;;;;;;3.17;86.09;94763.75;4922048;29;20461;-81
2023/01/26 12:02:45;;;;;;;12.27;6.37;;;;;;;3.18;86.02;94764.59;4902692;29;20450;-82
2023/01/26 12:05:17;;;;;;;6.00;4.93;;;;;;;3.21;85.81;94757.50;4935337;29;20454;-81
2023/01/26 12:07:54;;;;;;;5.83;5.30;;;;;;;3.26;85.54;94755.47;4935342;29;20461;-81
2023/01/26 12:10:27;;;;;;;6.93;6.10;;;;;;;3.18;84.98;94759.41;4965841;28;20839;-81
2023/01/26 12:12:59;;;;;;;9.13;6.53;;;;;;;3.09;84.98;94753.00;4993395;28;20454;-81
2023/01/26 12:15:33;;;;;;;9.60;6.87;;;;;;;3.18;85.47;94741.25;4992727;28;20452;-81
2023/01/26 12:18:06;;;;;;;7.10;6.40;;;;;;;3.14;86.50;94740.63;4992923;28;20487;-79
2023/01/26 12:20:39;;;;;;;9.10;7.00;;;;;;;3.20;85.55;94742.03;4992922;28;20440;-81
2023/01/26 12:23:13;;;;;;;7.00;6.27;;;;;;;3.15;86.05;94733.66;5022972;28;20528;-81
2023/01/26 12:25:42;;;;;;;6.30;5.23;;;;;;;2.86;86.44;94722.41;5054471;28;20527;-80
2023/01/26 12:28:20;;;;;;;7.67;6.70;;;;;;;2.61;88.89;94713.47;5054194;28;20453;-81
2023/01/26 12:30:55;;;;;;;9.67;8.67;;;;;;;2.74;88.24;94708.41;5054227;28;20445;-81
2023/01/26 12:33:22;;;;;;;8.70;7.10;;;;;;;2.82;88.63;94713.13;5040964;28;20516;-81
2023/01/26 12:36:16;;;;;;;8.53;7.53;;;;;;;2.62;88.44;94699.59;4982149;28;20450;-81
2023/01/26 12:39:03;;;;;;;12.03;9.43;;;;;;;2.76;88.70;94696.19;4989390;28;20574;-80